Time;durP1;ratioP1;P1;durP2;ratioP2;P2;SDS_P1;SDS_P2;PMS_P1;PMS_P2;Temp;Humidity;BMP_temperature;BMP_pressure;BME280_temperature;BME280_humidity;BME280_pressure;Samples;Min_cycle;Max_cycle;Signal;HPM_P1;HPM_P2
2022/01/20 00:02:25;;;;;;;49.40;26.93;;;;;;;2.71;55.52;95305.84;5010955;28;20274;-75
2022/01/20 00:05:04;;;;;;;49.50;27.10;;;;;;;2.70;55.44;95308.44;5011360;28;20196;-73
2022/01/20 00:07:43;;;;;;;47.80;28.33;;;;;;;2.68;55.37;95303.50;5011822;28;20255;-75
2022/01/20 00:27:04;;;;;;;43.80;25.50;;;;;;;2.56;55.76;95300.75;4989459;28;20203;-74
2022/01/20 00:29:44;;;;;;;48.63;27.17;;;;;;;2.55;55.74;95291.50;4989902;28;20217;-77
2022/01/20 00:32:13;;;;;;;46.60;25.77;;;;;;;2.52;55.65;95284.91;4989631;28;20571;-74
2022/01/20 00:37:38;;;;;;;36.53;23.10;;;;;;;2.51;55.80;95288.34;4931263;29;20190;-74
2022/01/20 00:40:06;;;;;;;41.00;22.27;;;;;;;2.50;55.67;95277.44;4931397;29;20206;-73
2022/01/20 00:42:35;;;;;;;44.50;24.47;;;;;;;2.49;55.72;95280.00;4931387;29;20725;-75
2022/01/20 00:45:02;;;;;;;46.37;23.87;;;;;;;2.48;56.15;95278.38;4931503;29;20552;-73
2022/01/20 00:47:29;;;;;;;42.13;24.10;;;;;;;2.48;55.69;95276.69;4931641;29;20591;-74
2022/01/20 00:49:56;;;;;;;38.23;23.43;;;;;;;2.46;55.87;95272.59;4931290;29;20194;-77
2022/01/20 00:52:23;;;;;;;43.70;23.00;;;;;;;2.44;56.02;95271.84;4960236;28;20208;-75
2022/01/20 00:54:50;;;;;;;42.83;23.13;;;;;;;2.42;56.10;95271.94;4969734;28;20684;-77
2022/01/20 00:57:17;;;;;;;40.30;22.53;;;;;;;2.36;55.97;95262.13;4970082;28;20584;-74
2022/01/20 00:59:45;;;;;;;35.23;20.93;;;;;;;2.42;56.01;95266.91;4969844;28;20226;-73
2022/01/20 01:02:12;;;;;;;37.63;22.37;;;;;;;2.40;56.13;95266.13;4969578;28;20715;-75
2022/01/20 01:04:40;;;;;;;36.23;21.70;;;;;;;2.37;55.92;95262.94;4969872;28;20201;-76
2022/01/20 01:07:43;;;;;;;40.37;21.57;;;;;;;2.40;55.93;95272.88;4969680;28;20205;-75
2022/01/20 01:10:13;;;;;;;39.77;21.53;;;;;;;2.25;55.87;95242.47;4991989;28;20192;-74
2022/01/20 01:12:47;;;;;;;41.10;19.90;;;;;;;2.38;55.77;95264.59;4991120;28;20670;-76
2022/01/20 01:15:19;;;;;;;32.17;20.20;;;;;;;2.36;56.08;95267.16;4990992;28;20193;-74
2022/01/20 01:20:34;;;;;;;34.70;19.73;;;;;;;2.33;56.05;95269.88;4990699;28;20287;-74
2022/01/20 01:23:02;;;;;;;28.73;18.63;;;;;;;2.31;56.08;95261.53;4991231;28;20200;-76
2022/01/20 01:25:29;;;;;;;38.57;20.70;;;;;;;2.30;56.17;95254.03;4990982;28;20189;-75
2022/01/20 01:27:58;;;;;;;40.23;20.07;;;;;;;2.31;56.21;95248.09;4989779;28;20269;-75
2022/01/20 01:30:56;;;;;;;32.80;19.43;;;;;;;2.30;56.29;95254.88;4990810;28;20295;-76
2022/01/20 01:33:24;;;;;;;36.93;18.73;;;;;;;2.24;56.37;95245.84;4990987;28;20232;-73
2022/01/20 01:35:56;;;;;;;36.00;19.40;;;;;;;2.25;56.16;95242.47;4991111;28;20665;-75
2022/01/20 01:38:39;;;;;;;27.40;18.20;;;;;;;2.26;56.28;95246.63;4991107;28;20718;-77
2022/01/20 01:41:09;;;;;;;38.67;19.03;;;;;;;2.23;56.09;95235.84;4992985;28;20251;-77
2022/01/20 01:43:37;;;;;;;33.27;18.57;;;;;;;2.23;56.43;95238.38;4996555;28;20276;-77
2022/01/20 01:46:05;;;;;;;31.37;17.60;;;;;;;2.18;56.36;95215.88;4996027;28;20607;-73
2022/01/20 01:48:32;;;;;;;29.17;17.43;;;;;;;2.22;56.29;95232.50;4990757;28;20239;-75
2022/01/20 01:51:00;;;;;;;30.93;17.80;;;;;;;2.21;56.36;95225.84;4990619;28;20197;-75
2022/01/20 01:53:27;;;;;;;32.10;17.77;;;;;;;2.20;56.43;95224.22;4990758;28;20259;-75
2022/01/20 01:55:55;;;;;;;33.30;17.63;;;;;;;2.20;56.51;95220.84;4990990;28;20584;-74
2022/01/20 01:58:22;;;;;;;27.80;16.57;;;;;;;2.20;56.48;95208.25;4990559;28;20224;-75
2022/01/20 02:00:48;;;;;;;31.47;18.97;;;;;;;2.19;56.34;95209.13;4990736;28;20217;-77
2022/01/20 02:03:17;;;;;;;28.83;17.60;;;;;;;2.18;56.62;95210.03;4991597;28;20232;-75
2022/01/20 02:05:58;;;;;;;30.73;17.50;;;;;;;2.10;56.73;95202.00;4994131;28;20208;-75
2022/01/20 02:08:35;;;;;;;36.40;18.50;;;;;;;2.12;56.51;95198.53;4995042;28;20232;-74
2022/01/20 02:19:18;;;;;;;31.90;17.27;;;;;;;2.13;56.35;95200.16;4995360;28;20274;-73
2022/01/20 02:21:48;;;;;;;27.90;17.27;;;;;;;2.10;56.54;95191.94;4994691;28;20216;-75
2022/01/20 02:24:15;;;;;;;34.03;19.37;;;;;;;1.85;56.33;95152.75;4994707;28;20200;-75
2022/01/20 02:26:42;;;;;;;36.63;17.10;;;;;;;1.90;56.54;95150.84;4994186;28;20553;-74
2022/01/20 02:29:09;;;;;;;26.63;16.53;;;;;;;2.08;56.61;95181.91;4994228;28;20196;-74
2022/01/20 02:31:36;;;;;;;33.50;17.47;;;;;;;2.08;57.06;95183.63;4994402;28;20587;-74
2022/01/20 02:34:03;;;;;;;31.20;17.33;;;;;;;2.07;56.55;95176.94;4993961;28;20196;-75
2022/01/20 02:36:31;;;;;;;31.07;17.13;;;;;;;2.06;56.46;95175.31;4994389;28;20204;-75
2022/01/20 02:39:05;;;;;;;28.43;17.57;;;;;;;1.96;56.63;95163.16;4993854;28;20309;-73
2022/01/20 02:47:12;;;;;;;28.67;17.50;;;;;;;1.89;56.58;95146.66;4954411;28;20679;-73
2022/01/20 02:49:39;;;;;;;27.57;15.77;;;;;;;1.93;56.75;95145.63;4954281;29;20195;-75
2022/01/20 02:52:07;;;;;;;30.93;16.77;;;;;;;2.03;56.55;95171.25;4953297;29;20282;-75
2022/01/20 02:54:36;;;;;;;31.73;15.70;;;;;;;2.04;56.60;95170.34;4952806;29;20198;-74
2022/01/20 02:57:04;;;;;;;28.30;15.90;;;;;;;1.71;56.71;95119.81;4952736;29;20607;-75
2022/01/20 02:59:32;;;;;;;31.37;16.87;;;;;;;2.01;56.70;95166.25;4952728;29;20210;-76
2022/01/20 03:01:58;;;;;;;32.23;17.67;;;;;;;2.00;56.76;95164.63;4952722;29;20194;-77
2022/01/20 03:04:26;;;;;;;29.70;17.97;;;;;;;2.00;56.61;95164.63;4952732;29;20191;-74
2022/01/20 03:06:54;;;;;;;30.20;16.40;;;;;;;1.98;56.65;95156.31;4952151;29;20333;-77
2022/01/20 03:09:21;;;;;;;29.63;18.07;;;;;;;1.97;56.63;95154.69;4952148;29;20230;-75
2022/01/20 03:11:49;;;;;;;26.67;16.73;;;;;;;1.99;56.89;95162.19;4952453;29;20186;-75
2022/01/20 03:14:17;;;;;;;30.33;15.73;;;;;;;1.89;56.74;95148.38;4952252;28;20195;-74
2022/01/20 03:16:44;;;;;;;30.37;16.40;;;;;;;1.93;56.82;95149.84;4951734;29;20646;-74
2022/01/20 03:19:11;;;;;;;27.53;16.27;;;;;;;1.87;57.00;95140.91;4955106;28;20284;-76
2022/01/20 03:21:38;;;;;;;33.77;17.33;;;;;;;1.96;56.69;95155.56;4993093;28;20572;-74
2022/01/20 03:24:05;;;;;;;31.10;17.87;;;;;;;1.66;56.94;95114.19;4992892;28;20189;-75
2022/01/20 03:26:32;;;;;;;27.80;16.73;;;;;;;1.93;56.96;95155.72;4994160;28;20259;-75
2022/01/20 03:29:01;;;;;;;27.47;15.17;;;;;;;1.87;57.09;95145.13;4993725;28;20289;-76
2022/01/20 03:31:30;;;;;;;29.30;18.03;;;;;;;1.65;57.03;95110.88;4993517;28;20193;-76
2022/01/20 03:33:57;;;;;;;31.00;15.63;;;;;;;1.91;56.92;95149.94;4992866;28;20193;-73
2022/01/20 03:36:24;;;;;;;26.00;17.13;;;;;;;1.88;56.71;95132.44;4993335;28;20200;-75
2022/01/20 03:38:51;;;;;;;33.13;18.03;;;;;;;1.83;57.16;95133.56;4993095;28;20231;-76
2022/01/20 03:41:19;;;;;;;28.80;16.90;;;;;;;1.90;57.04;95150.00;4994065;28;20189;-75
2022/01/20 03:43:46;;;;;;;27.93;16.43;;;;;;;1.85;56.86;95129.25;4993400;28;20193;-75
2022/01/20 03:46:15;;;;;;;29.97;16.70;;;;;;;1.90;56.99;95138.22;4993077;28;20197;-76
2022/01/20 03:48:50;;;;;;;28.47;18.27;;;;;;;1.89;57.08;95139.09;4993284;28;20189;-77
2022/01/20 03:51:20;;;;;;;26.87;15.87;;;;;;;1.87;56.81;95135.84;4993464;28;20258;-77
2022/01/20 03:53:48;;;;;;;26.63;15.73;;;;;;;1.90;56.83;95134.88;4993035;28;20731;-73
2022/01/20 03:56:15;;;;;;;30.03;18.87;;;;;;;1.88;56.95;95126.56;4993708;28;20189;-73
2022/01/20 03:58:42;;;;;;;28.90;16.67;;;;;;;1.86;57.01;95131.72;4992969;28;20215;-74
2022/01/20 04:01:09;;;;;;;30.70;15.53;;;;;;;1.78;57.09;95126.22;4992679;28;20189;-74
2022/01/20 04:03:37;;;;;;;33.07;16.83;;;;;;;1.85;56.95;95132.56;4993108;28;20709;-76
2022/01/20 04:06:05;;;;;;;27.57;17.67;;;;;;;1.83;56.87;95123.47;4992239;28;20664;-74
2022/01/20 04:08:33;;;;;;;32.33;16.27;;;;;;;1.63;56.70;95101.72;4992271;28;20235;-75
2022/01/20 04:11:02;;;;;;;27.47;14.17;;;;;;;1.83;56.60;95126.00;4992309;28;20197;-77
2022/01/20 04:13:32;;;;;;;26.13;14.47;;;;;;;1.81;56.77;95131.09;4992416;28;20193;-74
2022/01/20 04:16:00;;;;;;;27.30;16.17;;;;;;;1.81;56.73;95133.59;4991897;28;20727;-75
2022/01/20 04:18:28;;;;;;;25.17;15.40;;;;;;;1.80;56.86;95131.16;4992308;28;20584;-75
2022/01/20 04:20:57;;;;;;;25.60;15.23;;;;;;;1.82;57.05;95120.13;4991776;28;20228;-76
2022/01/20 04:23:24;;;;;;;29.87;14.90;;;;;;;1.81;56.86;95125.22;4992353;28;20196;-75
2022/01/20 04:25:51;;;;;;;28.07;15.30;;;;;;;1.81;57.05;95126.03;4992232;28;20196;-75
2022/01/20 04:28:18;;;;;;;31.27;16.67;;;;;;;1.75;57.08;95113.75;4992828;28;20208;-76
2022/01/20 04:30:44;;;;;;;31.13;16.90;;;;;;;1.81;57.00;95117.66;4991519;28;20217;-74
2022/01/20 04:33:11;;;;;;;24.47;15.37;;;;;;;1.73;56.90;95118.06;4992025;28;20229;-74
2022/01/20 04:35:38;;;;;;;27.70;15.33;;;;;;;1.78;57.01;95121.16;4992261;28;20575;-74
2022/01/20 04:38:07;;;;;;;33.57;15.57;;;;;;;1.79;56.84;95129.53;4991899;28;20256;-77
2022/01/20 04:40:39;;;;;;;28.10;14.57;;;;;;;1.64;57.23;95105.88;4991526;28;20704;-77
2022/01/20 04:43:06;;;;;;;22.70;14.37;;;;;;;1.78;56.73;95122.88;4991516;28;20287;-76
2022/01/20 04:45:38;;;;;;;24.17;14.53;;;;;;;1.80;57.01;95121.09;4991588;28;20185;-74
2022/01/20 04:48:18;;;;;;;25.40;13.60;;;;;;;1.77;57.11;95119.53;4991263;28;20197;-76
2022/01/20 04:58:59;;;;;;;21.37;13.77;;;;;;;1.73;57.08;95121.41;4991591;28;20803;-73
2022/01/20 05:01:26;;;;;;;23.50;13.10;;;;;;;1.74;56.76;95114.66;4991265;28;20212;-77
2022/01/20 05:03:54;;;;;;;21.63;12.53;;;;;;;1.74;56.74;95122.22;4991892;28;20615;-77
2022/01/20 05:06:21;;;;;;;21.27;13.00;;;;;;;1.68;56.73;95114.94;4991190;28;20201;-76
2022/01/20 05:08:52;;;;;;;21.60;13.57;;;;;;;1.73;56.73;95113.84;4991381;28;20229;-77
2022/01/20 05:11:18;;;;;;;29.40;14.13;;;;;;;1.72;57.07;95126.50;4991186;28;20193;-74
2022/01/20 05:13:45;;;;;;;26.70;15.03;;;;;;;1.71;56.78;95118.13;4991662;28;20208;-74
2022/01/20 05:16:12;;;;;;;23.73;14.43;;;;;;;1.72;56.94;95113.88;4991343;28;20200;-74
2022/01/20 05:18:39;;;;;;;25.90;15.03;;;;;;;1.71;56.90;95110.56;4991170;28;20657;-75
2022/01/20 05:21:06;;;;;;;23.10;15.43;;;;;;;1.72;57.05;95106.31;4990551;28;20634;-75
2022/01/20 05:23:33;;;;;;;23.10;14.77;;;;;;;1.50;56.93;95074.59;4991348;28;20193;-75
2022/01/20 05:26:01;;;;;;;26.73;15.53;;;;;;;1.16;57.08;95027.53;4991234;28;20193;-73
2022/01/20 05:28:28;;;;;;;30.87;14.73;;;;;;;1.49;57.02;95084.75;4991470;28;20193;-75
2022/01/20 05:30:55;;;;;;;25.57;15.47;;;;;;;1.70;56.93;95113.16;4990956;28;20197;-74
2022/01/20 05:33:22;;;;;;;23.67;14.90;;;;;;;1.64;57.06;95109.25;4990976;28;20281;-73
2022/01/20 05:35:50;;;;;;;24.83;14.97;;;;;;;1.57;56.92;95100.31;4990857;28;20204;-75
2022/01/20 05:38:17;;;;;;;27.07;14.67;;;;;;;1.70;56.98;95121.53;4990165;28;20204;-73
2022/01/20 05:40:45;;;;;;;22.67;13.53;;;;;;;1.70;56.78;95126.56;4990830;28;20213;-74
2022/01/20 05:43:13;;;;;;;26.23;14.73;;;;;;;1.72;56.94;95117.22;4991410;28;20185;-75
2022/01/20 05:45:40;;;;;;;22.13;15.00;;;;;;;1.70;57.00;95113.16;4992212;28;20199;-73
2022/01/20 05:48:14;;;;;;;27.93;14.27;;;;;;;1.52;56.94;95081.28;4990507;28;20185;-73
2022/01/20 05:50:41;;;;;;;23.23;14.97;;;;;;;1.72;56.99;95119.75;4990797;28;20189;-75
2022/01/20 05:53:07;;;;;;;20.30;13.37;;;;;;;1.55;56.70;95096.25;4990040;28;20688;-74
2022/01/20 05:55:36;;;;;;;22.93;12.37;;;;;;;1.69;56.55;95116.56;4993104;28;20200;-75
2022/01/20 05:58:04;;;;;;;20.97;13.23;;;;;;;1.61;56.39;95104.34;4991670;28;20667;-75
2022/01/20 06:00:34;;;;;;;22.70;12.40;;;;;;;1.75;56.18;95126.34;4990783;28;20224;-73
2022/01/20 06:05:45;;;;;;;22.90;14.13;;;;;;;1.40;56.51;95065.84;4991035;28;20289;-75
2022/01/20 06:08:12;;;;;;;23.07;14.60;;;;;;;1.75;56.21;95109.53;4990076;28;20240;-74
2022/01/20 06:10:39;;;;;;;20.87;12.57;;;;;;;1.88;55.96;95119.81;4990567;28;20196;-78
2022/01/20 06:13:06;;;;;;;26.20;14.20;;;;;;;1.91;55.87;95114.63;4990901;28;20668;-75
2022/01/20 06:15:34;;;;;;;20.27;12.77;;;;;;;1.96;55.92;95137.09;4991604;28;20197;-78
2022/01/20 06:18:01;;;;;;;25.87;13.60;;;;;;;1.80;55.92;95089.13;4995540;28;20192;-78
2022/01/20 06:20:29;;;;;;;22.93;13.43;;;;;;;2.05;55.55;95121.53;4994268;28;20224;-73
2022/01/20 06:22:55;;;;;;;16.73;11.77;;;;;;;2.08;55.71;95126.41;4990759;28;20624;-75
2022/01/20 06:25:23;;;;;;;20.53;11.27;;;;;;;2.14;55.51;95126.09;4990574;28;20201;-73
2022/01/20 06:27:50;;;;;;;23.47;13.17;;;;;;;2.20;55.34;95120.78;4990748;28;20649;-75
2022/01/20 06:30:17;;;;;;;22.43;12.53;;;;;;;2.27;55.03;95128.84;4990349;28;20192;-75
2022/01/20 06:32:46;;;;;;;21.77;12.50;;;;;;;2.37;54.73;95134.22;4990595;28;20627;-76
2022/01/20 06:35:13;;;;;;;20.80;11.87;;;;;;;2.29;54.64;95080.81;4990389;28;20197;-77
2022/01/20 06:37:40;;;;;;;25.60;12.53;;;;;;;2.93;53.88;95133.00;4990352;28;20665;-75
2022/01/20 06:40:08;;;;;;;19.27;11.30;;;;;;;3.19;53.58;95111.41;4990152;28;20224;-75
2022/01/20 06:42:35;;;;;;;21.80;12.07;;;;;;;3.77;53.42;95116.63;4990657;28;20623;-75
2022/01/20 06:45:02;;;;;;;20.20;12.40;;;;;;;4.26;53.37;95138.31;4990076;28;20185;-73
2022/01/20 06:47:28;;;;;;;18.97;12.13;;;;;;;4.69;53.13;95118.06;4990551;28;20185;-75
2022/01/20 06:49:57;;;;;;;20.27;11.77;;;;;;;5.31;52.92;95118.50;4991337;28;20612;-74
2022/01/20 06:52:24;;;;;;;19.07;11.67;;;;;;;5.86;52.53;95109.94;4993955;28;20681;-78
2022/01/20 06:54:51;;;;;;;20.03;12.10;;;;;;;6.40;52.37;95112.34;4993576;28;20216;-73
2022/01/20 06:57:18;;;;;;;18.20;10.77;;;;;;;6.97;51.80;95111.06;4993564;28;20201;-73
2022/01/20 06:59:44;;;;;;;21.23;11.80;;;;;;;7.51;51.03;95110.66;4993570;28;20189;-75
2022/01/20 07:02:11;;;;;;;19.87;11.50;;;;;;;8.03;50.45;95115.38;4993768;28;20255;-76
2022/01/20 07:04:38;;;;;;;18.33;11.30;;;;;;;8.57;49.84;95120.81;4993874;28;20192;-78
2022/01/20 07:07:07;;;;;;;18.93;10.30;;;;;;;9.09;48.97;95116.88;4993527;28;20617;-79
2022/01/20 07:09:35;;;;;;;20.47;10.30;;;;;;;9.51;48.25;95108.41;4993638;28;20197;-76
2022/01/20 07:12:04;;;;;;;18.80;10.73;;;;;;;10.05;47.50;95117.69;4994021;28;20196;-78
2022/01/20 07:14:31;;;;;;;18.23;10.53;;;;;;;10.50;46.79;95120.03;4993583;28;20197;-76
2022/01/20 07:16:59;;;;;;;19.07;10.83;;;;;;;10.85;46.06;95112.94;4993509;28;20193;-77
2022/01/20 07:19:26;;;;;;;25.70;13.33;;;;;;;11.36;45.59;95128.19;4993456;28;20194;-77
2022/01/20 07:21:53;;;;;;;23.80;13.43;;;;;;;11.76;44.57;95127.28;4993282;28;20217;-77
2022/01/20 07:24:21;;;;;;;23.23;12.63;;;;;;;12.14;43.95;95131.63;4993331;28;20319;-76
2022/01/20 07:26:48;;;;;;;19.17;12.23;;;;;;;12.46;43.24;95121.03;4993303;28;20181;-75
2022/01/20 07:29:15;;;;;;;16.73;11.67;;;;;;;12.86;42.60;95108.91;4992896;28;20683;-78
2022/01/20 07:31:42;;;;;;;22.47;11.80;;;;;;;13.20;41.71;95116.84;4993324;28;20216;-78
2022/01/20 07:34:08;;;;;;;20.70;11.37;;;;;;;13.53;40.65;95115.47;4993086;28;20205;-75
2022/01/20 07:36:36;;;;;;;19.60;10.63;;;;;;;13.85;39.82;95127.81;4993387;28;20208;-78
2022/01/20 07:39:03;;;;;;;16.53;10.63;;;;;;;14.12;39.51;95124.38;4993058;28;20197;-75
2022/01/20 07:41:32;;;;;;;19.03;10.37;;;;;;;14.39;39.27;95108.00;4992752;28;20605;-77
2022/01/20 07:43:59;;;;;;;16.37;10.23;;;;;;;14.47;38.59;95077.19;4991288;28;20201;-75
2022/01/20 07:46:26;;;;;;;18.17;11.33;;;;;;;14.93;38.18;95110.44;4991185;28;20200;-75
2022/01/20 07:48:53;;;;;;;18.00;10.30;;;;;;;15.14;37.78;95104.88;4990502;28;20794;-78
2022/01/20 07:51:20;;;;;;;19.67;11.00;;;;;;;15.41;37.13;95109.00;4990394;28;20189;-75
2022/01/20 07:53:47;;;;;;;18.10;9.93;;;;;;;15.61;36.65;95107.75;4990078;28;20332;-76
2022/01/20 07:56:14;;;;;;;20.23;10.73;;;;;;;15.78;36.25;95109.44;4990065;28;20258;-75
2022/01/20 07:58:42;;;;;;;19.33;10.03;;;;;;;15.94;35.50;95123.31;4990274;28;20192;-79
2022/01/20 08:01:10;;;;;;;23.63;10.73;;;;;;;16.02;34.93;95113.81;4989782;28;20233;-76
2022/01/20 08:03:37;;;;;;;19.30;11.47;;;;;;;15.93;34.77;95119.94;4991010;28;20193;-78
2022/01/20 08:06:04;;;;;;;17.10;10.13;;;;;;;15.70;34.50;95117.16;4990072;28;20200;-74
2022/01/20 08:08:31;;;;;;;20.70;10.73;;;;;;;15.43;34.01;95113.03;4989617;28;20747;-74
2022/01/20 08:10:58;;;;;;;18.77;10.90;;;;;;;15.16;33.93;95119.25;4990581;28;20189;-75
2022/01/20 08:13:24;;;;;;;20.47;11.50;;;;;;;15.01;33.65;95125.91;4990216;28;20189;-74
2022/01/20 08:15:52;;;;;;;19.93;10.17;;;;;;;15.01;33.34;95136.22;4990017;28;20190;-75
2022/01/20 08:18:19;;;;;;;18.50;10.70;;;;;;;14.93;32.84;95126.69;4989717;28;20200;-74
2022/01/20 08:20:46;;;;;;;18.23;10.63;;;;;;;14.66;32.74;95119.94;4989888;28;20212;-73
2022/01/20 08:23:13;;;;;;;21.60;11.43;;;;;;;14.55;32.94;95125.38;4989674;28;20251;-74
2022/01/20 08:25:40;;;;;;;25.40;14.80;;;;;;;14.64;32.55;95115.94;4989683;28;20223;-73
2022/01/20 08:28:07;;;;;;;25.43;16.33;;;;;;;14.57;32.31;95092.56;4990752;28;20192;-75
2022/01/20 08:30:34;;;;;;;26.37;14.77;;;;;;;14.41;32.23;95108.66;4990205;28;20185;-74
2022/01/20 08:33:02;;;;;;;28.60;14.60;;;;;;;13.98;32.53;95112.84;4989674;28;20193;-74
2022/01/20 08:35:32;;;;;;;22.57;13.83;;;;;;;13.50;32.94;95101.16;4989492;28;20197;-75
2022/01/20 08:38:00;;;;;;;24.27;12.97;;;;;;;13.22;32.93;95107.25;4989735;28;20304;-73
2022/01/20 08:40:27;;;;;;;28.40;14.70;;;;;;;12.84;33.60;95098.78;4988950;28;20307;-73
2022/01/20 08:42:56;;;;;;;24.03;13.90;;;;;;;12.58;33.83;95103.75;4989293;28;20679;-76
2022/01/20 08:45:25;;;;;;;31.50;13.90;;;;;;;12.37;34.10;95096.22;4989130;28;20208;-75
2022/01/20 08:47:55;;;;;;;23.30;14.10;;;;;;;12.16;34.05;95098.16;4989281;28;20193;-76
2022/01/20 08:50:24;;;;;;;27.10;14.03;;;;;;;12.00;34.20;95099.53;4989561;28;20200;-74
2022/01/20 08:52:52;;;;;;;24.43;14.27;;;;;;;11.86;34.23;95094.00;4989981;28;20193;-75
2022/01/20 08:55:19;;;;;;;25.00;14.90;;;;;;;11.80;34.47;95098.69;5008056;28;20205;-74
2022/01/20 08:57:47;;;;;;;25.87;15.07;;;;;;;11.48;34.54;95046.91;5013121;28;20211;-75
2022/01/20 09:00:16;;;;;;;24.37;14.40;;;;;;;11.54;34.65;95083.03;5011555;28;20668;-75
2022/01/20 09:02:43;;;;;;;32.40;15.40;;;;;;;11.45;34.88;95093.28;5012380;28;20189;-74
2022/01/20 09:05:10;;;;;;;26.00;14.73;;;;;;;11.28;35.05;95097.31;5013984;28;20192;-73
2022/01/20 09:07:39;;;;;;;24.47;14.40;;;;;;;11.09;35.19;95087.00;5014872;28;20250;-75
2022/01/20 09:10:07;;;;;;;28.73;15.50;;;;;;;10.92;35.28;95080.75;5020208;28;20192;-77
2022/01/20 09:15:30;;;;;;;22.23;14.27;;;;;;;10.74;35.69;95086.47;5018333;28;20268;-75
2022/01/20 09:18:00;;;;;;;23.80;14.37;;;;;;;10.63;35.90;95085.78;5017267;28;20288;-74
2022/01/20 09:20:28;;;;;;;24.70;15.27;;;;;;;10.55;36.09;95082.09;5008565;28;20620;-75
2022/01/20 09:22:56;;;;;;;23.57;14.83;;;;;;;10.49;36.14;95084.34;5011083;28;20196;-76
2022/01/20 09:25:23;;;;;;;27.23;15.97;;;;;;;10.43;36.19;95087.44;5010422;28;20193;-75
2022/01/20 09:27:51;;;;;;;26.87;15.57;;;;;;;10.35;36.38;95075.28;5010872;28;20645;-74
2022/01/20 09:30:22;;;;;;;31.73;14.73;;;;;;;10.29;36.38;95057.91;5010240;28;20250;-75
2022/01/20 09:32:58;;;;;;;27.03;15.97;;;;;;;10.26;36.56;95060.69;5011193;28;20199;-75
2022/01/20 09:35:29;;;;;;;26.63;15.60;;;;;;;10.23;36.64;95051.53;5010098;28;20242;-75
2022/01/20 09:37:58;;;;;;;30.03;15.70;;;;;;;10.21;36.65;95052.56;5011035;28;20195;-74
2022/01/20 09:40:25;;;;;;;22.83;15.13;;;;;;;10.18;36.50;95043.41;5010903;28;20290;-76
2022/01/20 09:42:52;;;;;;;28.50;15.70;;;;;;;10.15;36.92;95042.88;5011186;28;20193;-74
2022/01/20 09:45:19;;;;;;;29.47;16.47;;;;;;;10.16;37.00;95045.28;5010013;28;20690;-76
2022/01/20 09:47:46;;;;;;;30.70;17.73;;;;;;;10.16;36.93;95044.50;5010244;28;20192;-74
2022/01/20 09:50:15;;;;;;;32.07;18.03;;;;;;;10.14;37.19;95036.94;5010821;28;20191;-73
2022/01/20 09:52:42;;;;;;;39.00;16.27;;;;;;;10.14;37.05;95029.25;5010917;28;20226;-74
2022/01/20 09:55:11;;;;;;;26.80;16.87;;;;;;;10.15;37.18;95025.78;5010844;28;20599;-73
2022/01/20 09:57:38;;;;;;;31.57;18.00;;;;;;;9.95;37.27;94986.53;5013960;28;20244;-74
2022/01/20 10:00:10;;;;;;;29.97;16.90;;;;;;;10.07;37.31;95000.06;5012713;28;20207;-74
2022/01/20 10:02:37;;;;;;;32.47;18.20;;;;;;;10.13;37.30;94996.97;5010005;28;20216;-73
2022/01/20 10:05:04;;;;;;;29.80;17.63;;;;;;;10.21;37.22;95002.28;5010332;28;20218;-75
2022/01/20 10:07:34;;;;;;;27.53;17.27;;;;;;;10.23;37.44;94995.28;5009841;28;20239;-74
2022/01/20 10:10:01;;;;;;;39.10;17.97;;;;;;;10.25;37.26;94982.41;5009954;28;20188;-75
2022/01/20 10:12:34;;;;;;;26.90;15.97;;;;;;;10.25;37.38;94978.09;5007785;28;20181;-76
2022/01/20 10:15:01;;;;;;;29.30;15.90;;;;;;;10.34;37.46;94983.38;5010361;28;20199;-74
2022/01/20 10:17:29;;;;;;;31.80;16.00;;;;;;;10.37;37.48;94976.28;5010130;28;20191;-74
2022/01/20 10:19:58;;;;;;;28.47;16.17;;;;;;;10.42;37.36;94968.22;5010463;28;20262;-75
2022/01/20 10:22:25;;;;;;;28.50;15.87;;;;;;;10.47;37.13;94966.88;5009845;28;20281;-75
2022/01/20 10:25:02;;;;;;;30.80;15.77;;;;;;;10.39;37.18;94930.13;5011785;28;20192;-73
2022/01/20 10:27:31;;;;;;;24.37;14.60;;;;;;;10.58;37.30;94953.19;5013603;28;20192;-74
2022/01/20 10:30:00;;;;;;;25.93;14.97;;;;;;;10.65;37.11;94941.47;5013956;28;20318;-75
2022/01/20 10:32:27;;;;;;;26.63;14.67;;;;;;;10.60;37.03;94909.56;5013625;28;20200;-74
2022/01/20 10:35:04;;;;;;;26.17;14.07;;;;;;;10.81;37.06;94935.84;5013822;28;20204;-74
2022/01/20 10:37:31;;;;;;;26.37;13.53;;;;;;;10.78;36.97;94907.97;5013034;28;20192;-75
2022/01/20 10:40:07;;;;;;;24.03;12.27;;;;;;;10.98;36.59;94914.72;5013785;28;20200;-75
2022/01/20 10:42:40;;;;;;;24.40;11.80;;;;;;;11.04;36.57;94900.56;5013248;28;20761;-74
2022/01/20 10:45:08;;;;;;;22.43;10.50;;;;;;;11.13;36.21;94898.94;5013694;28;20200;-76
2022/01/20 10:47:39;;;;;;;18.70;10.53;;;;;;;11.33;36.13;94910.78;5013764;28;20198;-74
2022/01/20 10:50:11;;;;;;;25.37;10.00;;;;;;;11.43;35.80;94918.47;5013593;28;20257;-74
2022/01/20 10:52:40;;;;;;;16.83;9.30;;;;;;;11.49;35.92;94905.94;5013527;28;20192;-75
2022/01/20 10:55:18;;;;;;;20.93;10.93;;;;;;;11.56;35.59;94901.03;5013756;28;20271;-76
2022/01/20 10:57:46;;;;;;;20.87;10.57;;;;;;;11.44;35.71;94864.56;5013424;28;20193;-76
2022/01/20 11:00:16;;;;;;;26.33;10.57;;;;;;;11.53;35.78;94868.03;5013353;28;20312;-75
2022/01/20 11:02:43;;;;;;;18.83;10.40;;;;;;;11.80;35.48;94882.66;5012660;28;20235;-75
2022/01/20 11:05:14;;;;;;;20.53;10.10;;;;;;;11.84;35.28;94891.69;5012586;28;20185;-75
2022/01/20 11:07:42;;;;;;;18.50;8.70;;;;;;;11.95;35.02;94883.00;5012784;28;20309;-74
2022/01/20 11:10:10;;;;;;;15.67;8.87;;;;;;;12.02;34.71;94889.19;5013046;28;20193;-75
2022/01/20 11:12:38;;;;;;;14.70;7.77;;;;;;;11.86;34.23;94842.88;5013024;28;20203;-75
2022/01/20 11:15:08;;;;;;;11.43;7.67;;;;;;;12.17;34.18;94874.16;5013134;28;20192;-74
2022/01/20 11:17:36;;;;;;;10.87;6.23;;;;;;;12.23;33.87;94879.53;5012936;28;20284;-75
2022/01/20 11:20:09;;;;;;;10.23;5.53;;;;;;;12.28;33.27;94873.97;5012976;28;20243;-75
2022/01/20 11:22:37;;;;;;;10.53;5.73;;;;;;;12.32;33.13;94870.16;5012607;28;20220;-75
2022/01/20 11:25:06;;;;;;;7.87;4.87;;;;;;;12.41;32.70;94869.28;5012447;28;20286;-74
2022/01/20 11:27:39;;;;;;;8.17;4.33;;;;;;;12.33;32.12;94848.69;5012612;28;20195;-75
2022/01/20 11:30:26;;;;;;;10.10;4.87;;;;;;;12.47;31.76;94857.63;5012146;28;20243;-74
2022/01/20 11:33:02;;;;;;;6.50;4.27;;;;;;;12.54;31.88;94858.69;5012613;28;20185;-75
2022/01/20 11:35:41;;;;;;;7.67;4.60;;;;;;;12.57;31.53;94858.41;5012368;28;20195;-76
2022/01/20 11:38:09;;;;;;;6.87;4.17;;;;;;;12.63;31.48;94857.00;5012309;28;20200;-74
2022/01/20 11:40:48;;;;;;;7.33;4.10;;;;;;;12.67;31.39;94859.13;5012273;28;20203;-75
2022/01/20 11:43:15;;;;;;;6.63;4.10;;;;;;;12.70;31.53;94863.97;5012035;28;20255;-74
2022/01/20 11:45:47;;;;;;;7.03;3.80;;;;;;;12.63;31.31;94846.75;5012691;28;20283;-74
2022/01/20 11:48:16;;;;;;;5.30;3.70;;;;;;;12.62;31.26;94834.88;5012816;28;20548;-74
2022/01/20 11:50:44;;;;;;;7.60;3.63;;;;;;;12.80;31.11;94859.56;5011244;28;20200;-75
2022/01/20 11:53:13;;;;;;;6.37;3.60;;;;;;;12.81;31.11;94858.59;5012601;28;20196;-74
2022/01/20 11:55:45;;;;;;;3.77;3.17;;;;;;;12.81;31.14;94850.09;5010969;28;20200;-74
2022/01/20 11:58:12;;;;;;;6.50;3.17;;;;;;;12.71;30.89;94829.66;5012701;28;20569;-75
2022/01/20 12:00:40;;;;;;;5.20;3.43;;;;;;;12.86;30.53;94844.53;5012718;28;20577;-76
2022/01/20 12:03:14;;;;;;;4.80;3.60;;;;;;;12.88;30.61;94837.50;5013615;28;20220;-76
2022/01/20 12:05:42;;;;;;;5.37;3.27;;;;;;;12.89;30.74;94839.91;5018050;28;20187;-75
2022/01/20 12:08:11;;;;;;;4.23;3.23;;;;;;;12.78;30.72;94817.06;5016453;28;20702;-73
2022/01/20 12:10:39;;;;;;;5.23;3.17;;;;;;;12.90;30.65;94840.72;5012034;28;20196;-75
2022/01/20 12:13:11;;;;;;;5.47;3.57;;;;;;;12.64;30.93;94791.91;5012184;28;20185;-74
2022/01/20 12:15:49;;;;;;;6.17;3.40;;;;;;;12.89;30.68;94839.91;5012421;28;20192;-74
2022/01/20 12:18:17;;;;;;;5.87;3.23;;;;;;;12.76;30.93;94817.19;5012173;28;20648;-74
2022/01/20 12:20:44;;;;;;;3.80;3.00;;;;;;;12.88;30.88;94827.25;5010602;28;20193;-75
2022/01/20 12:23:11;;;;;;;4.23;3.27;;;;;;;12.87;30.90;94831.56;5012700;28;20556;-75